Arjay, Kentucky
Current Conditions -  °F | °C
As of 12:35 AM on Friday 31 Oct 2014 (Local Time) from K1A6 Reporting Station
Clear Clear  
Wind Chill: 38°   Ceiling: Unl
Heat Index: 38°   Visibility: 10mi
Dew Point: 37°   Wind: 0mph
Humidity: 98%   Direction: NA
Pressure: 30.03"   Gusts: NA
Location:  36.8°N, 83.65°W
Report Text: K1A6 310435Z AUTO 00000KT 10SM CLR 03/03 A3003 RMK AO2 T00310028
Loading
Personal Weather Stations






























Interactive Weather Map
Tropical Storm Tracking
New forecast layout! Learn more

10-Day Weather Forecast

Advertisements
Track Severe Weather on mobile